Liberty, Illinois
Current Conditions -  °F | °C
As of 9:54 PM on Friday 19 Dec 2014 (Local Time) from KUIN Reporting Station
Overcast Overcast  
Wind Chill: 26°   Ceiling: 5000
Heat Index: 31°   Visibility: 7mi
Dew Point: 26°   Wind: 5mph
Humidity: 82%   Direction: 140°SE
Pressure: 30.25"   Gusts: NA
Location:  39.88°N, 91.11°W
Report Text: KUIN 200354Z AUTO 14004KT 7SM OVC050 M01/M03 A3025 RMK AO2 SLP252 T10061033
Loading
Personal Weather Stations






























Interactive Weather Map New forecast layout! Learn more

10-Day Weather Forecast

Advertisements
Track Severe Weather on mobile